createdAt,value
2022-12-31T00:01:39.466Z,98851.18
2022-12-31T00:04:28.015Z,98855.52
2022-12-31T00:07:16.485Z,98861.37
2022-12-31T00:10:05.588Z,98863.37
2022-12-31T00:12:54.070Z,98864.81
2022-12-31T00:15:43.076Z,98865.59
2022-12-31T00:18:31.523Z,98864.48
2022-12-31T00:21:20.571Z,98865.77
2022-12-31T00:24:10.971Z,98864.84
2022-12-31T00:26:59.495Z,98864.91
2022-12-31T00:29:49.614Z,98860.48
2022-12-31T00:32:38.254Z,98859.69
2022-12-31T00:35:26.913Z,98858.61
2022-12-31T00:38:15.488Z,98863.23
2022-12-31T00:41:04.433Z,98859.73
2022-12-31T00:43:52.973Z,98855.80
2022-12-31T00:49:30.465Z,98860.33
2022-12-31T00:52:19.252Z,98863.10
2022-12-31T00:55:08.812Z,98865.07
2022-12-31T00:57:57.194Z,98867.25
2022-12-31T01:00:45.685Z,98867.13
2022-12-31T01:03:34.221Z,98867.78
2022-12-31T01:06:22.741Z,98870.75
2022-12-31T01:09:12.600Z,98878.19
2022-12-31T01:12:01.067Z,98880.57
2022-12-31T01:14:49.582Z,98881.39
2022-12-31T01:17:38.164Z,98881.51
2022-12-31T01:20:26.574Z,98873.85
2022-12-31T01:23:15.116Z,98878.19
2022-12-31T01:26:04.534Z,98880.23
2022-12-31T01:28:52.787Z,98872.81
2022-12-31T01:31:41.647Z,98885.52
2022-12-31T01:34:30.906Z,98895.69
2022-12-31T01:37:19.335Z,98892.56
2022-12-31T01:40:08.656Z,98891.92
2022-12-31T01:42:57.562Z,98888.08
2022-12-31T01:45:48.104Z,98889.00
2022-12-31T01:48:36.704Z,98888.90
2022-12-31T01:51:26.454Z,98886.98
2022-12-31T01:54:18.070Z,98882.34
2022-12-31T01:57:08.480Z,98876.83
2022-12-31T01:59:58.517Z,98875.46
2022-12-31T02:02:47.064Z,98869.36
2022-12-31T02:05:38.216Z,98868.13
2022-12-31T02:08:26.272Z,98865.44
2022-12-31T02:11:32.512Z,98874.27
2022-12-31T02:14:25.006Z,98876.33
2022-12-31T02:17:20.169Z,98873.02
2022-12-31T02:20:24.088Z,98875.89
2022-12-31T02:23:32.744Z,98869.59
2022-12-31T02:26:29.940Z,98865.15
2022-12-31T02:29:27.004Z,98860.22
2022-12-31T02:32:17.629Z,98858.42
2022-12-31T02:35:08.835Z,98856.56
2022-12-31T02:38:01.939Z,98855.63
2022-12-31T02:40:50.581Z,98864.19
2022-12-31T02:43:46.497Z,98866.66
2022-12-31T02:46:39.946Z,98868.70
2022-12-31T02:49:32.070Z,98869.27
2022-12-31T02:52:25.433Z,98868.17
2022-12-31T02:55:17.216Z,98864.41
2022-12-31T02:58:09.902Z,98866.09
2022-12-31T03:01:16.684Z,98866.58
2022-12-31T03:04:20.052Z,98870.91
2022-12-31T03:07:10.004Z,98876.89
2022-12-31T03:09:58.757Z,98875.01
2022-12-31T03:12:48.215Z,98865.95
2022-12-31T03:15:38.533Z,98854.80
2022-12-31T03:18:55.825Z,98849.48
2022-12-31T03:22:02.668Z,98845.29
2022-12-31T03:25:09.631Z,98838.80
2022-12-31T03:27:58.364Z,98836.80
2022-12-31T03:30:48.935Z,98847.25
2022-12-31T03:33:38.849Z,98853.02
2022-12-31T03:36:27.359Z,98862.83
2022-12-31T03:39:15.767Z,98863.31
2022-12-31T03:42:04.356Z,98862.79
2022-12-31T03:44:52.985Z,98868.33
2022-12-31T03:47:42.688Z,98867.42
2022-12-31T03:50:31.192Z,98868.02
2022-12-31T03:53:19.690Z,98863.31
2022-12-31T03:56:08.414Z,98863.66
2022-12-31T03:58:56.882Z,98860.37
2022-12-31T04:01:45.494Z,98853.40
2022-12-31T04:04:33.995Z,98849.64
2022-12-31T04:07:22.696Z,98845.80
2022-12-31T04:10:12.640Z,98838.52
2022-12-31T04:13:03.825Z,98840.39
2022-12-31T04:15:52.255Z,98846.17
2022-12-31T04:18:40.709Z,98838.23
2022-12-31T04:21:34.783Z,98841.55
2022-12-31T04:24:23.679Z,98849.56
2022-12-31T04:27:12.660Z,98855.34
2022-12-31T04:30:01.039Z,98842.73
2022-12-31T04:32:49.511Z,98823.92
2022-12-31T04:35:38.033Z,98814.98
2022-12-31T04:38:26.500Z,98808.10
2022-12-31T04:41:17.885Z,98812.45
2022-12-31T04:44:06.194Z,98836.05
2022-12-31T04:46:54.577Z,98847.95
2022-12-31T04:49:43.080Z,98854.49
2022-12-31T04:52:34.635Z,98860.98
2022-12-31T04:55:27.097Z,98862.44
2022-12-31T04:58:15.678Z,98873.61
2022-12-31T05:01:04.416Z,98884.14
2022-12-31T05:03:52.858Z,98881.84
2022-12-31T05:06:41.349Z,98876.44
2022-12-31T05:09:30.421Z,98875.92
2022-12-31T05:12:19.114Z,98886.94
2022-12-31T05:15:08.751Z,98892.70
2022-12-31T05:17:57.232Z,98899.27
2022-12-31T05:20:45.861Z,98906.30
2022-12-31T05:23:34.465Z,98905.77
2022-12-31T05:26:22.986Z,98903.20
2022-12-31T05:29:11.485Z,98892.95
2022-12-31T05:31:59.953Z,98888.78
2022-12-31T05:34:48.818Z,98894.48
2022-12-31T05:37:37.370Z,98899.52
2022-12-31T05:40:25.937Z,98907.88
2022-12-31T05:43:14.377Z,98915.39
2022-12-31T05:46:03.841Z,98917.27
2022-12-31T05:48:51.931Z,98923.14
2022-12-31T05:51:40.453Z,98930.29
2022-12-31T05:54:28.868Z,98933.34
2022-12-31T05:57:17.324Z,98930.06
2022-12-31T06:00:07.399Z,98925.44
2022-12-31T06:03:02.120Z,98916.77
2022-12-31T06:05:50.369Z,98924.22
2022-12-31T06:08:38.874Z,98934.98
2022-12-31T06:11:27.443Z,98945.56
2022-12-31T06:14:15.925Z,98940.75
2022-12-31T06:17:04.346Z,98928.10
2022-12-31T06:19:52.847Z,98925.33
2022-12-31T06:22:41.385Z,98928.09
2022-12-31T06:25:29.877Z,98940.80
2022-12-31T06:28:20.519Z,98943.75
2022-12-31T06:31:11.598Z,98941.58
2022-12-31T06:34:00.127Z,98943.73
2022-12-31T06:36:48.643Z,98943.63
2022-12-31T06:39:37.108Z,98949.39
2022-12-31T06:42:27.712Z,98957.66
2022-12-31T06:45:16.283Z,98958.04
2022-12-31T06:48:05.273Z,98966.80
2022-12-31T06:50:53.748Z,98972.64
2022-12-31T06:53:42.298Z,98975.33
2022-12-31T06:56:34.703Z,98976.65
2022-12-31T06:59:25.104Z,98978.56
2022-12-31T07:02:22.940Z,98978.55
2022-12-31T07:05:21.515Z,98977.37
2022-12-31T07:08:18.959Z,98981.38
2022-12-31T07:11:12.217Z,98977.96
2022-12-31T07:14:03.588Z,98969.65
2022-12-31T07:16:59.828Z,98956.30
2022-12-31T07:19:57.278Z,98956.23
2022-12-31T07:22:46.902Z,98952.55
2022-12-31T07:25:36.595Z,98940.02
2022-12-31T07:28:32.132Z,98949.66
2022-12-31T07:31:27.602Z,98962.20
2022-12-31T07:34:20.266Z,98974.02
2022-12-31T07:37:13.104Z,98986.88
2022-12-31T07:40:03.354Z,98986.41
2022-12-31T07:43:00.756Z,98972.82
2022-12-31T07:45:52.557Z,98978.76
2022-12-31T07:48:41.278Z,98992.16
2022-12-31T07:51:30.200Z,98991.73
2022-12-31T07:54:18.659Z,98989.39
2022-12-31T07:57:07.331Z,98986.08
2022-12-31T08:00:01.884Z,98982.55
2022-12-31T08:03:12.999Z,98979.16
2022-12-31T08:06:06.953Z,98973.48
2022-12-31T08:08:59.016Z,98971.50
2022-12-31T08:11:49.776Z,98970.87
2022-12-31T08:14:42.442Z,98974.80
2022-12-31T08:17:31.192Z,98977.34
2022-12-31T08:20:19.722Z,98967.27
2022-12-31T08:23:21.783Z,98956.23
2022-12-31T08:26:20.542Z,98955.01
2022-12-31T08:29:21.783Z,98956.20
2022-12-31T08:32:16.695Z,98958.16
2022-12-31T08:35:10.619Z,98962.77
2022-12-31T08:38:02.461Z,98957.81
2022-12-31T08:40:52.854Z,98970.35
2022-12-31T08:43:46.084Z,98983.70
2022-12-31T08:46:38.496Z,98983.75
2022-12-31T08:49:27.860Z,98993.77
2022-12-31T08:52:23.887Z,98991.77
2022-12-31T08:55:17.242Z,98991.46
2022-12-31T08:58:12.503Z,98988.36
2022-12-31T09:01:01.707Z,98992.67
2022-12-31T09:03:59.703Z,98986.02
2022-12-31T09:06:53.019Z,98979.10
2022-12-31T09:09:49.267Z,98967.70
2022-12-31T09:12:41.927Z,98967.64
2022-12-31T09:15:35.984Z,98974.60
2022-12-31T09:18:28.381Z,98983.90
2022-12-31T09:21:21.765Z,98980.02
2022-12-31T09:24:11.801Z,98978.14
2022-12-31T09:27:05.941Z,98974.48
2022-12-31T09:29:58.075Z,98977.11
2022-12-31T09:32:56.840Z,98974.02
2022-12-31T09:35:52.633Z,98972.87
2022-12-31T09:38:51.863Z,98974.62
2022-12-31T09:41:56.435Z,98978.83
2022-12-31T09:44:58.469Z,98978.57
2022-12-31T09:48:05.331Z,98965.76
2022-12-31T09:51:13.943Z,98965.91
2022-12-31T09:54:28.375Z,98975.80
2022-12-31T09:57:30.759Z,98985.69
2022-12-31T10:00:21.315Z,98991.42
2022-12-31T10:03:24.919Z,98995.53
2022-12-31T10:06:27.441Z,99001.31
2022-12-31T10:09:21.830Z,99007.48
2022-12-31T10:12:28.368Z,99008.06
2022-12-31T10:15:27.030Z,99003.97
2022-12-31T10:18:22.808Z,98996.61
2022-12-31T10:21:21.359Z,98998.23
2022-12-31T10:24:24.381Z,99003.31
2022-12-31T10:27:20.709Z,99011.77
2022-12-31T10:30:16.580Z,99020.38
2022-12-31T10:33:08.832Z,99024.23
2022-12-31T10:36:05.846Z,99021.08
2022-12-31T10:39:06.211Z,99016.63
2022-12-31T10:42:17.431Z,99015.44
2022-12-31T10:45:33.809Z,99010.02
2022-12-31T10:48:51.425Z,99003.58
2022-12-31T10:51:54.010Z,98998.24
2022-12-31T10:54:59.325Z,98987.73
2022-12-31T10:58:03.593Z,98983.04
2022-12-31T11:01:00.322Z,98982.34
2022-12-31T11:04:16.120Z,98975.69
2022-12-31T11:07:21.609Z,98979.87
2022-12-31T11:10:20.072Z,98980.92
2022-12-31T11:13:25.837Z,98984.40
2022-12-31T11:16:27.561Z,98983.52
2022-12-31T11:19:21.992Z,98976.95
2022-12-31T11:22:19.397Z,98972.27
2022-12-31T11:25:18.227Z,98975.38
2022-12-31T11:28:13.929Z,98977.86
2022-12-31T11:31:10.983Z,98974.35
2022-12-31T11:34:14.006Z,98965.91
2022-12-31T11:37:10.911Z,98955.44
2022-12-31T11:40:04.998Z,98949.13
2022-12-31T11:42:55.948Z,98946.73
2022-12-31T11:45:51.815Z,98945.48
2022-12-31T11:48:44.948Z,98940.22
2022-12-31T11:51:40.689Z,98936.99
2022-12-31T11:54:48.311Z,98926.76
2022-12-31T11:57:37.752Z,98918.17
2022-12-31T12:00:27.609Z,98917.15
2022-12-31T12:03:16.120Z,98923.74
2022-12-31T12:06:05.023Z,98919.95
2022-12-31T12:08:53.692Z,98918.86
2022-12-31T12:11:43.724Z,98923.10
2022-12-31T12:14:33.096Z,98927.85
2022-12-31T12:17:31.453Z,98927.79
2022-12-31T12:20:21.683Z,98913.56
2022-12-31T12:23:16.036Z,98910.60
2022-12-31T12:26:04.706Z,98910.56
2022-12-31T12:28:53.161Z,98902.11
2022-12-31T12:31:41.974Z,98892.95
2022-12-31T12:34:31.423Z,98880.42
2022-12-31T12:37:31.811Z,98885.13
2022-12-31T12:40:21.222Z,98885.38
2022-12-31T12:43:21.256Z,98877.80
2022-12-31T12:46:19.387Z,98870.77
2022-12-31T12:49:07.899Z,98867.19
2022-12-31T12:52:17.229Z,98871.37
2022-12-31T12:55:10.428Z,98875.39
2022-12-31T12:58:03.450Z,98879.15
2022-12-31T13:00:56.322Z,98884.52
2022-12-31T13:07:17.179Z,98861.09
2022-12-31T13:10:15.174Z,98855.00
2022-12-31T13:13:25.008Z,98850.98
2022-12-31T13:16:17.216Z,98861.93
2022-12-31T13:19:11.916Z,98862.42
2022-12-31T13:22:05.083Z,98866.65
2022-12-31T13:25:01.517Z,98870.54
2022-12-31T13:27:52.052Z,98863.73
2022-12-31T13:30:43.635Z,98853.85
2022-12-31T13:33:35.877Z,98858.58
2022-12-31T13:36:27.760Z,98858.90
2022-12-31T13:39:17.676Z,98848.47
2022-12-31T13:42:09.955Z,98849.38
2022-12-31T13:45:02.138Z,98851.98
2022-12-31T13:47:54.257Z,98846.27
2022-12-31T13:50:49.594Z,98843.76
2022-12-31T13:53:45.940Z,98838.98
2022-12-31T13:56:37.717Z,98843.17
2022-12-31T13:59:28.474Z,98853.30
2022-12-31T14:02:26.965Z,98859.27
2022-12-31T14:05:20.268Z,98867.89
2022-12-31T14:08:10.231Z,98868.00
2022-12-31T14:11:04.764Z,98871.27
2022-12-31T14:14:03.263Z,98866.59
2022-12-31T14:16:55.936Z,98855.84
2022-12-31T14:19:51.935Z,98851.40
2022-12-31T14:22:44.496Z,98845.96
2022-12-31T14:25:37.242Z,98847.89
2022-12-31T14:28:30.382Z,98848.70
2022-12-31T14:31:25.970Z,98852.89
2022-12-31T14:34:18.435Z,98856.22
2022-12-31T14:37:13.296Z,98862.36
2022-12-31T14:40:05.874Z,98867.52
2022-12-31T14:43:03.391Z,98869.11
2022-12-31T14:45:56.342Z,98869.61
2022-12-31T14:48:54.156Z,98871.28
2022-12-31T14:51:47.044Z,98875.70
2022-12-31T14:54:37.279Z,98877.48
2022-12-31T14:57:27.283Z,98875.09
2022-12-31T15:00:33.513Z,98873.89
2022-12-31T15:03:26.971Z,98868.92
2022-12-31T15:06:29.470Z,98874.93
2022-12-31T15:09:28.977Z,98881.05
2022-12-31T15:12:33.429Z,98884.48
2022-12-31T15:15:35.557Z,98880.06
2022-12-31T15:18:31.939Z,98875.64
2022-12-31T15:21:40.474Z,98871.48
2022-12-31T15:24:30.314Z,98869.70
2022-12-31T15:27:29.152Z,98866.15
2022-12-31T15:30:42.491Z,98871.89
2022-12-31T15:33:33.155Z,98883.83
2022-12-31T15:36:21.941Z,98892.12
2022-12-31T15:39:25.461Z,98890.77
2022-12-31T15:42:40.027Z,98894.28
2022-12-31T15:45:33.483Z,98899.19
2022-12-31T15:48:24.408Z,98903.97
2022-12-31T15:51:16.781Z,98908.60
2022-12-31T15:54:05.302Z,98918.44
2022-12-31T15:56:54.154Z,98923.54
2022-12-31T15:59:44.232Z,98935.05
2022-12-31T16:02:32.826Z,98944.10
2022-12-31T16:05:22.672Z,98946.25
2022-12-31T16:08:17.088Z,98947.59
2022-12-31T16:11:06.154Z,98928.72
2022-12-31T16:13:55.497Z,98916.65
2022-12-31T16:16:51.430Z,98924.41
2022-12-31T16:19:43.052Z,98916.34
2022-12-31T16:22:36.468Z,98916.10
2022-12-31T16:25:32.062Z,98922.27
2022-12-31T16:28:23.132Z,98924.85
2022-12-31T16:31:16.242Z,98929.86
2022-12-31T16:34:06.709Z,98942.70
2022-12-31T16:36:55.787Z,98948.17
2022-12-31T16:40:06.716Z,98948.71
2022-12-31T16:42:55.051Z,98952.05
2022-12-31T16:45:43.861Z,98954.52
2022-12-31T16:48:33.814Z,98955.82
2022-12-31T16:51:24.215Z,98957.75
2022-12-31T16:54:18.932Z,98959.80
2022-12-31T16:57:10.340Z,98962.30
2022-12-31T17:00:01.209Z,98959.61
2022-12-31T17:03:00.035Z,98957.13
2022-12-31T17:05:56.485Z,98962.81
2022-12-31T17:08:47.892Z,98957.35
2022-12-31T17:11:38.744Z,98961.18
2022-12-31T17:14:28.058Z,98964.58
2022-12-31T17:17:20.487Z,98961.38
2022-12-31T17:20:19.775Z,98965.92
2022-12-31T17:23:08.844Z,98971.34
2022-12-31T17:26:03.394Z,98973.60
2022-12-31T17:28:53.438Z,98981.56
2022-12-31T17:31:57.261Z,98983.88
2022-12-31T17:34:48.630Z,98986.55
2022-12-31T17:37:37.088Z,98988.89
2022-12-31T17:40:50.961Z,98982.75
2022-12-31T17:43:40.770Z,98984.23
2022-12-31T17:46:40.280Z,98979.18
2022-12-31T17:49:30.023Z,98977.34
2022-12-31T17:52:18.326Z,98986.81
2022-12-31T17:55:07.071Z,98994.85
2022-12-31T17:57:56.690Z,98984.41
2022-12-31T18:00:44.781Z,98979.23
2022-12-31T18:03:33.160Z,98982.52
2022-12-31T18:06:21.645Z,98984.27
2022-12-31T18:09:11.924Z,98981.98
2022-12-31T18:12:02.034Z,98986.68
2022-12-31T18:14:51.573Z,98996.47
2022-12-31T18:17:40.366Z,98989.61
2022-12-31T18:20:29.242Z,98989.52
2022-12-31T18:23:18.930Z,98985.77
2022-12-31T18:26:09.769Z,98991.89
2022-12-31T18:28:58.762Z,98994.18
2022-12-31T18:31:48.796Z,98994.84
2022-12-31T18:34:36.831Z,99002.80
2022-12-31T18:37:28.191Z,99011.49
2022-12-31T18:40:16.431Z,99016.67
2022-12-31T18:43:05.422Z,99024.02
2022-12-31T18:45:53.738Z,99033.70
2022-12-31T18:48:42.566Z,99037.83
2022-12-31T18:51:32.456Z,99040.20
2022-12-31T18:54:21.261Z,99047.19
2022-12-31T18:57:10.655Z,99054.88
2022-12-31T18:59:59.272Z,99054.36
2022-12-31T19:02:47.886Z,99049.77
2022-12-31T19:05:37.296Z,99044.73
2022-12-31T19:08:25.993Z,99043.34
2022-12-31T19:11:15.025Z,99044.65
2022-12-31T19:14:03.618Z,99047.66
2022-12-31T19:16:53.600Z,99048.04
2022-12-31T19:19:41.728Z,99048.23
2022-12-31T19:22:30.155Z,99048.92
2022-12-31T19:25:19.898Z,99044.88
2022-12-31T19:28:14.740Z,99048.27
2022-12-31T19:31:03.148Z,99047.23
2022-12-31T19:33:51.702Z,99053.00
2022-12-31T19:36:44.228Z,99060.04
2022-12-31T19:39:32.762Z,99065.81
2022-12-31T19:42:21.289Z,99064.92
2022-12-31T19:45:12.802Z,99066.14
2022-12-31T19:48:00.945Z,99073.48
2022-12-31T19:50:50.255Z,99075.05
2022-12-31T19:53:39.116Z,99075.48
2022-12-31T19:56:27.487Z,99073.02
2022-12-31T19:59:18.276Z,99074.55
2022-12-31T20:02:06.976Z,99079.63
2022-12-31T20:04:55.624Z,99081.02
2022-12-31T20:07:44.048Z,99072.46
2022-12-31T20:10:32.483Z,99065.01
2022-12-31T20:13:21.033Z,99063.77
2022-12-31T20:16:10.325Z,99067.06
2022-12-31T20:18:58.375Z,99065.50
2022-12-31T20:21:46.863Z,99063.61
2022-12-31T20:24:35.319Z,99061.30
2022-12-31T20:27:23.769Z,99070.69
2022-12-31T20:30:12.496Z,99073.76
2022-12-31T20:33:00.950Z,99078.55
2022-12-31T20:35:49.668Z,99086.52
2022-12-31T20:38:38.168Z,99088.59
2022-12-31T20:41:26.761Z,99089.11
2022-12-31T20:44:15.251Z,99100.51
2022-12-31T20:47:03.699Z,99100.14
2022-12-31T20:50:12.211Z,99091.83
2022-12-31T20:53:01.423Z,99096.54
2022-12-31T20:55:50.039Z,99102.42
2022-12-31T20:58:40.561Z,99099.75
2022-12-31T21:01:41.758Z,99101.11
2022-12-31T21:04:40.340Z,99094.70
2022-12-31T21:07:29.768Z,99098.73
2022-12-31T21:10:18.031Z,99101.70
2022-12-31T21:13:06.561Z,99105.93
2022-12-31T21:15:55.131Z,99106.56
2022-12-31T21:18:43.453Z,99106.08
2022-12-31T21:21:36.761Z,99101.16
2022-12-31T21:24:25.827Z,99102.66
2022-12-31T21:27:19.328Z,99107.48
2022-12-31T21:30:18.797Z,99108.54
2022-12-31T21:33:07.876Z,99110.77
2022-12-31T21:36:01.127Z,99113.55
2022-12-31T21:38:53.048Z,99107.20
2022-12-31T21:41:53.675Z,99109.20
2022-12-31T21:44:42.630Z,99115.02
2022-12-31T21:47:49.603Z,99113.22
2022-12-31T21:50:39.056Z,99119.63
2022-12-31T21:53:34.189Z,99121.45
2022-12-31T21:56:25.237Z,99121.73
2022-12-31T21:59:31.971Z,99128.78
2022-12-31T22:02:38.710Z,99130.74
2022-12-31T22:05:27.259Z,99131.35
2022-12-31T22:08:15.749Z,99139.13
2022-12-31T22:11:04.313Z,99146.84
2022-12-31T22:13:53.365Z,99154.19
2022-12-31T22:16:41.870Z,99159.58
2022-12-31T22:19:30.528Z,99162.98
2022-12-31T22:22:19.198Z,99167.92
2022-12-31T22:25:08.442Z,99173.90
2022-12-31T22:28:36.156Z,99174.36
2022-12-31T22:31:05.991Z,99177.38
2022-12-31T22:33:54.563Z,99179.44
2022-12-31T22:36:42.967Z,99177.97
2022-12-31T22:39:43.548Z,99176.12
2022-12-31T22:42:32.912Z,99176.93
2022-12-31T22:45:21.536Z,99180.11
2022-12-31T22:48:10.076Z,99185.41
2022-12-31T22:50:58.753Z,99189.32
2022-12-31T22:53:47.165Z,99189.11
2022-12-31T22:56:35.667Z,99191.57
2022-12-31T22:59:24.186Z,99191.70
2022-12-31T23:02:12.732Z,99199.51
2022-12-31T23:05:15.166Z,99211.06
2022-12-31T23:08:11.848Z,99212.79
2022-12-31T23:11:09.043Z,99220.81
2022-12-31T23:14:15.898Z,99221.89
2022-12-31T23:17:30.230Z,99224.48
2022-12-31T23:20:40.579Z,99229.13
2022-12-31T23:23:29.132Z,99235.86
2022-12-31T23:26:17.548Z,99241.88
2022-12-31T23:29:05.875Z,99242.79
2022-12-31T23:31:54.416Z,99248.89
2022-12-31T23:34:43.358Z,99252.08
2022-12-31T23:37:32.753Z,99251.39
2022-12-31T23:40:22.056Z,99253.08
2022-12-31T23:43:18.301Z,99260.08
2022-12-31T23:46:07.021Z,99267.63
2022-12-31T23:48:55.666Z,99267.13
2022-12-31T23:51:44.827Z,99271.05
2022-12-31T23:54:34.478Z,99274.16
2022-12-31T23:57:22.959Z,99281.45
